createdAt,value
2022-12-23T00:00:21.934Z,98502.16
2022-12-23T00:02:49.809Z,98249.88
2022-12-23T00:05:17.915Z,98522.75
2022-12-23T00:07:47.027Z,98624.00
2022-12-23T00:10:14.866Z,98590.44
2022-12-23T00:13:00.239Z,98393.19
2022-12-23T00:15:27.944Z,98616.97
2022-12-23T00:17:55.810Z,98317.41
2022-12-23T00:20:23.698Z,98508.09
2022-12-23T00:23:07.905Z,98335.09
2022-12-23T00:25:42.322Z,98546.31
2022-12-23T00:28:11.675Z,98446.41
2022-12-23T00:30:39.699Z,98283.19
2022-12-23T00:33:07.461Z,98328.41
2022-12-23T00:35:35.254Z,98597.31
2022-12-23T00:38:04.387Z,98287.22
2022-12-23T00:40:50.108Z,98411.56
2022-12-23T00:43:17.848Z,98595.66
2022-12-23T00:45:45.764Z,98283.03
2022-12-23T00:48:36.341Z,98418.75
2022-12-23T00:51:04.077Z,98695.91
2022-12-23T00:53:33.164Z,98482.66
2022-12-23T00:56:00.892Z,98536.19
2022-12-23T00:58:28.801Z,98421.53
2022-12-23T01:01:13.936Z,98523.66
2022-12-23T01:03:59.079Z,98559.72
2022-12-23T01:06:27.016Z,98444.03
2022-12-23T01:08:56.095Z,98402.19
2022-12-23T01:11:23.733Z,98566.09
2022-12-23T01:13:51.475Z,98611.59
2022-12-23T01:16:19.186Z,98469.41
2022-12-23T01:18:46.976Z,98638.19
2022-12-23T01:21:14.741Z,98628.63
2022-12-23T01:23:42.426Z,98490.16
2022-12-23T01:26:11.791Z,98645.31
2022-12-23T01:28:39.529Z,98662.56
2022-12-23T01:31:07.352Z,98515.34
2022-12-23T01:33:35.108Z,98308.81
2022-12-23T01:36:02.858Z,98589.41
2022-12-23T01:38:30.822Z,98783.38
2022-12-23T01:40:58.498Z,98536.59
2022-12-23T01:43:46.094Z,98681.84
2022-12-23T01:46:13.804Z,98399.00
2022-12-23T01:48:41.835Z,98644.78
2022-12-23T01:51:11.512Z,98540.75
2022-12-23T01:53:40.059Z,98362.38
2022-12-23T01:56:09.175Z,98442.72
2022-12-23T01:58:39.139Z,98212.94
2022-12-23T02:01:25.703Z,98471.78
2022-12-23T02:03:55.701Z,98613.88
2022-12-23T02:06:43.859Z,98649.47
2022-12-23T02:09:20.682Z,98743.97
2022-12-23T02:12:13.234Z,98631.56
2022-12-23T02:15:07.951Z,98577.91
2022-12-23T02:17:40.531Z,98509.91
2022-12-23T02:20:37.321Z,98422.88
2022-12-23T02:23:18.190Z,98700.16
2022-12-23T02:25:53.760Z,98345.59
2022-12-23T02:28:36.814Z,98534.00
2022-12-23T02:31:10.464Z,98494.41
2022-12-23T02:33:44.618Z,98615.63
2022-12-23T02:36:21.773Z,98590.78
2022-12-23T02:38:52.938Z,98652.03
2022-12-23T02:41:22.178Z,98499.75
2022-12-23T02:43:51.180Z,98571.97
2022-12-23T02:46:22.067Z,98701.38
2022-12-23T02:48:51.731Z,98404.97
2022-12-23T02:51:19.460Z,98749.97
2022-12-23T02:53:50.171Z,98722.59
2022-12-23T02:56:18.388Z,98552.44
2022-12-23T02:58:50.172Z,98768.41
2022-12-23T03:01:18.165Z,98419.66
2022-12-23T03:03:47.461Z,98487.28
2022-12-23T03:06:18.867Z,98628.09
2022-12-23T03:08:46.625Z,98564.16
2022-12-23T03:11:15.249Z,98793.72
2022-12-23T03:13:53.961Z,98569.06
2022-12-23T03:16:23.828Z,98746.44
2022-12-23T03:19:04.352Z,98404.22
2022-12-23T03:21:34.483Z,98433.19
2022-12-23T03:24:06.915Z,98641.25
2022-12-23T03:26:37.828Z,98718.94
2022-12-23T03:29:09.048Z,98681.22
2022-12-23T03:31:37.010Z,98606.09
2022-12-23T03:34:07.741Z,98856.91
2022-12-23T03:36:38.133Z,98556.66
2022-12-23T03:39:06.559Z,98561.81
2022-12-23T03:41:36.160Z,98501.03
2022-12-23T03:44:05.435Z,98597.97
2022-12-23T03:46:34.593Z,98618.56
2022-12-23T03:49:03.594Z,98444.84
2022-12-23T03:51:35.013Z,98468.59
2022-12-23T03:54:04.551Z,98724.00
2022-12-23T03:56:33.371Z,98520.97
2022-12-23T03:59:02.253Z,98357.03
2022-12-23T04:01:35.203Z,98725.88
2022-12-23T04:04:03.691Z,98658.06
2022-12-23T04:06:36.406Z,98591.78
2022-12-23T04:09:04.368Z,98776.00
2022-12-23T04:11:32.135Z,98513.50
2022-12-23T04:13:59.999Z,98575.28
2022-12-23T04:16:28.126Z,98622.13
2022-12-23T04:18:56.249Z,98720.88
2022-12-23T04:21:24.085Z,98493.47
2022-12-23T04:23:53.373Z,98646.19
2022-12-23T04:26:21.225Z,98645.81
2022-12-23T04:28:48.970Z,98515.91
2022-12-23T04:31:17.111Z,98706.06
2022-12-23T04:33:44.781Z,98597.59
2022-12-23T04:36:12.618Z,98857.13
2022-12-23T04:38:40.441Z,98783.75
2022-12-23T04:41:09.642Z,98772.00
2022-12-23T04:43:38.397Z,98811.03
2022-12-23T04:46:06.350Z,98823.28
2022-12-23T04:48:34.574Z,98822.63
2022-12-23T04:51:03.216Z,98518.56
2022-12-23T04:53:30.937Z,98728.84
2022-12-23T04:55:58.761Z,98702.25
2022-12-23T04:58:28.046Z,98569.34
2022-12-23T05:01:02.702Z,98669.84
2022-12-23T05:03:30.633Z,98697.97
2022-12-23T05:05:58.394Z,98788.28
2022-12-23T05:08:26.468Z,98660.94
2022-12-23T05:10:54.259Z,98410.22
2022-12-23T05:13:22.343Z,98632.97
2022-12-23T05:15:55.216Z,98714.47
2022-12-23T05:18:23.197Z,98693.28
2022-12-23T05:20:51.312Z,98624.53
2022-12-23T05:23:19.239Z,98612.47
2022-12-23T05:25:51.650Z,98699.59
2022-12-23T05:28:19.529Z,98742.22
2022-12-23T05:30:48.137Z,98661.63
2022-12-23T05:33:17.599Z,98622.19
2022-12-23T05:35:45.362Z,98676.09
2022-12-23T05:38:13.038Z,98709.16
2022-12-23T05:40:40.758Z,98796.00
2022-12-23T05:43:08.790Z,98670.94
2022-12-23T05:45:36.640Z,98718.97
2022-12-23T05:48:05.576Z,98800.41
2022-12-23T05:50:34.636Z,98537.59
2022-12-23T05:53:02.296Z,98647.94
2022-12-23T05:55:30.125Z,98781.53
2022-12-23T05:57:58.108Z,98742.09
2022-12-23T06:00:25.888Z,98827.69
2022-12-23T06:02:54.523Z,98637.47
2022-12-23T06:05:22.583Z,98576.19
2022-12-23T06:07:51.732Z,98577.22
2022-12-23T06:10:19.533Z,98658.66
2022-12-23T06:12:47.244Z,98549.34
2022-12-23T06:15:15.592Z,98845.00
2022-12-23T06:17:43.339Z,98685.28
2022-12-23T06:20:19.703Z,98824.41
2022-12-23T06:22:48.355Z,98830.53
2022-12-23T06:25:17.650Z,98890.56
2022-12-23T06:27:45.669Z,98545.84
2022-12-23T06:30:13.785Z,98850.28
2022-12-23T06:32:41.615Z,98880.91
2022-12-23T06:35:10.130Z,98711.44
2022-12-23T06:37:37.929Z,98749.75
2022-12-23T06:40:06.715Z,98516.38
2022-12-23T06:42:35.823Z,98684.94
2022-12-23T06:45:03.586Z,98709.75
2022-12-23T06:47:31.311Z,98797.13
2022-12-23T06:49:59.009Z,98679.28
2022-12-23T06:52:26.787Z,98542.78
2022-12-23T06:54:54.556Z,98866.13
2022-12-23T06:57:22.424Z,98874.00
2022-12-23T06:59:51.486Z,98836.31
2022-12-23T07:02:19.304Z,98657.81
2022-12-23T07:04:50.006Z,98680.72
2022-12-23T07:07:17.878Z,98740.75
2022-12-23T07:09:45.637Z,98783.94
2022-12-23T07:12:13.262Z,98777.75
2022-12-23T07:14:41.063Z,98824.06
2022-12-23T07:17:10.337Z,98700.66
2022-12-23T07:19:38.153Z,98731.53
2022-12-23T07:22:06.033Z,98541.38
2022-12-23T07:24:33.869Z,98603.09
2022-12-23T07:27:01.571Z,98691.28
2022-12-23T07:29:29.302Z,98695.00
2022-12-23T07:31:57.119Z,98792.09
2022-12-23T07:34:26.546Z,98741.94
2022-12-23T07:36:54.291Z,98902.66
2022-12-23T07:39:22.089Z,98636.28
2022-12-23T07:41:55.547Z,98677.47
2022-12-23T07:44:36.979Z,98822.41
2022-12-23T07:47:04.868Z,98804.38
2022-12-23T07:49:34.534Z,98591.22
2022-12-23T07:52:02.370Z,99025.09
2022-12-23T07:54:30.178Z,98988.38
2022-12-23T07:56:58.151Z,98670.47
2022-12-23T07:59:27.563Z,98854.94
2022-12-23T08:01:58.191Z,98907.66
2022-12-23T08:04:27.191Z,98503.28
2022-12-23T08:06:57.672Z,98839.22
2022-12-23T08:09:25.688Z,98575.88
2022-12-23T08:11:54.188Z,98551.84
2022-12-23T08:14:23.098Z,98769.94
2022-12-23T08:16:51.014Z,98718.94
2022-12-23T08:19:18.990Z,98870.91
2022-12-23T08:21:47.063Z,98860.69
2022-12-23T08:24:16.524Z,98548.94
2022-12-23T08:26:44.436Z,98790.03
2022-12-23T08:29:12.249Z,98730.78
2022-12-23T08:31:40.366Z,98889.75
2022-12-23T08:34:08.056Z,98757.22
2022-12-23T08:36:36.236Z,98836.72
2022-12-23T08:39:04.838Z,98863.31
2022-12-23T08:41:35.237Z,98617.09
2022-12-23T08:44:03.129Z,98830.63
2022-12-23T08:46:31.006Z,98884.22
2022-12-23T08:49:01.824Z,98626.88
2022-12-23T08:51:29.735Z,98842.72
2022-12-23T08:54:00.410Z,98757.75
2022-12-23T08:56:31.790Z,98898.06
2022-12-23T08:59:00.930Z,98882.56
2022-12-23T09:01:30.208Z,98646.88
2022-12-23T09:03:58.385Z,98910.28
2022-12-23T09:06:29.913Z,98879.59
2022-12-23T09:09:09.855Z,98820.44
2022-12-23T09:11:37.677Z,98890.16
2022-12-23T09:14:07.272Z,98544.00
2022-12-23T09:16:35.175Z,98891.13
2022-12-23T09:19:03.085Z,98778.72
2022-12-23T09:21:30.964Z,98835.06
2022-12-23T09:23:59.154Z,98731.78
2022-12-23T09:26:31.508Z,98568.03
2022-12-23T09:28:59.788Z,98670.41
2022-12-23T09:31:36.229Z,98765.50
2022-12-23T09:34:05.573Z,98745.63
2022-12-23T09:36:33.799Z,98728.16
2022-12-23T09:39:01.675Z,98923.34
2022-12-23T09:41:43.517Z,98916.28
2022-12-23T09:44:19.769Z,98686.16
2022-12-23T09:46:51.677Z,98859.41
2022-12-23T09:49:19.681Z,98949.44
2022-12-23T09:51:47.456Z,98724.03
2022-12-23T09:54:17.744Z,98582.97
2022-12-23T09:56:49.003Z,98931.66
2022-12-23T09:59:24.605Z,98705.16
2022-12-23T10:01:57.391Z,98766.66
2022-12-23T10:04:37.908Z,98883.06
2022-12-23T10:07:18.306Z,98637.72
2022-12-23T10:09:49.887Z,98616.06
2022-12-23T10:12:25.546Z,98750.72
2022-12-23T10:14:57.164Z,98623.69
2022-12-23T10:17:30.160Z,98490.56
2022-12-23T10:19:59.473Z,98754.59
2022-12-23T10:22:29.389Z,98859.97
2022-12-23T10:24:57.259Z,98620.03
2022-12-23T10:27:26.558Z,98683.41
2022-12-23T10:29:54.390Z,98688.06
2022-12-23T10:32:24.647Z,98824.16
2022-12-23T10:35:00.696Z,98865.75
2022-12-23T10:37:30.816Z,98654.03
2022-12-23T10:40:03.839Z,98677.03
2022-12-23T10:42:34.977Z,98545.13
2022-12-23T10:45:11.693Z,98652.41
2022-12-23T10:47:46.709Z,98718.06
2022-12-23T10:50:27.786Z,98295.25
2022-12-23T10:52:55.930Z,98764.66
2022-12-23T10:55:32.965Z,98573.56
2022-12-23T10:58:10.199Z,98278.50
2022-12-23T11:00:39.330Z,98448.72
2022-12-23T11:03:13.132Z,98491.28
2022-12-23T11:05:42.535Z,98244.81
2022-12-23T11:08:10.404Z,98308.25
2022-12-23T11:10:38.439Z,98498.81
2022-12-23T11:13:06.407Z,98717.09
2022-12-23T11:15:35.350Z,98648.72
2022-12-23T11:18:05.555Z,98836.00
2022-12-23T11:20:33.583Z,98508.47
2022-12-23T11:23:03.930Z,98423.72
2022-12-23T11:25:34.324Z,98651.09
2022-12-23T11:28:04.407Z,98424.28
2022-12-23T11:30:33.258Z,98386.16
2022-12-23T11:35:30.358Z,98708.44
2022-12-23T11:37:58.233Z,98697.25
2022-12-23T11:40:29.023Z,98698.97
2022-12-23T11:43:00.566Z,98698.09
2022-12-23T11:45:29.387Z,98690.16
2022-12-23T11:47:57.193Z,98679.88
2022-12-23T11:50:35.341Z,98699.56
2022-12-23T11:53:10.857Z,98680.28
2022-12-23T11:55:44.265Z,98670.50
2022-12-23T11:58:16.721Z,98606.47
2022-12-23T12:00:47.180Z,98649.53
2022-12-23T12:03:18.372Z,98624.34
2022-12-23T12:05:48.569Z,98634.63
2022-12-23T12:08:17.121Z,98627.53
2022-12-23T12:10:46.515Z,98608.31
2022-12-23T12:13:24.585Z,98609.13
2022-12-23T12:15:55.616Z,98588.13
2022-12-23T12:18:23.246Z,98586.22
2022-12-23T12:20:52.559Z,98570.59
2022-12-23T12:23:23.265Z,98559.16
2022-12-23T12:25:56.551Z,98545.63
2022-12-23T12:28:25.325Z,98546.41
2022-12-23T12:30:56.228Z,98535.34
2022-12-23T12:33:28.540Z,98548.06
2022-12-23T12:36:04.937Z,98545.28
2022-12-23T12:38:33.166Z,98543.38
2022-12-23T12:41:06.299Z,98547.66
2022-12-23T12:43:35.407Z,98549.25
2022-12-23T12:46:09.749Z,98559.72
2022-12-23T12:48:43.108Z,98551.81
2022-12-23T12:51:17.317Z,98544.84
2022-12-23T12:53:56.207Z,98533.59
2022-12-23T12:56:29.455Z,98537.63
2022-12-23T12:58:59.147Z,98526.19
2022-12-23T13:01:39.036Z,98521.97
2022-12-23T13:04:18.995Z,98528.16
2022-12-23T13:06:49.433Z,98493.50
2022-12-23T13:09:21.840Z,98502.47
2022-12-23T13:11:59.193Z,98488.66
2022-12-23T13:14:30.076Z,98476.81
2022-12-23T13:17:01.949Z,98467.16
2022-12-23T13:19:33.825Z,98456.81
2022-12-23T13:22:04.052Z,98427.66
2022-12-23T13:24:33.732Z,98442.34
2022-12-23T13:27:06.813Z,98451.16
2022-12-23T13:29:44.170Z,98463.28
2022-12-23T13:32:18.819Z,98451.28
2022-12-23T13:34:50.192Z,98428.50
2022-12-23T13:37:23.462Z,98428.09
2022-12-23T13:39:55.495Z,98386.16
2022-12-23T13:42:28.425Z,98404.81
2022-12-23T13:44:56.178Z,98402.47
2022-12-23T13:47:25.803Z,98388.22
2022-12-23T13:49:58.663Z,98392.88
2022-12-23T13:52:33.076Z,98374.78
2022-12-23T13:55:04.139Z,98340.81
2022-12-23T13:57:44.682Z,98379.69
2022-12-23T14:00:25.359Z,98360.31
2022-12-23T14:02:53.503Z,98367.59
2022-12-23T14:05:32.550Z,98364.19
2022-12-23T14:08:00.402Z,98357.28
2022-12-23T14:10:29.041Z,98359.16
2022-12-23T14:13:02.813Z,98354.06
2022-12-23T14:15:43.920Z,98358.97
2022-12-23T14:18:19.015Z,98331.97
2022-12-23T14:20:50.235Z,98318.81
2022-12-23T14:23:25.845Z,98299.53
2022-12-23T14:25:58.949Z,98296.97
2022-12-23T14:28:35.578Z,98316.25
2022-12-23T14:31:04.946Z,98302.34
2022-12-23T14:33:34.380Z,98295.50
2022-12-23T14:36:15.481Z,98280.50
2022-12-23T14:38:43.246Z,98279.44
2022-12-23T14:41:26.430Z,98294.00
2022-12-23T14:43:59.723Z,98270.75
2022-12-23T14:46:58.631Z,98297.59
2022-12-23T14:49:47.440Z,98298.44
2022-12-23T14:52:49.071Z,98292.91
2022-12-23T14:55:45.739Z,98282.28
2022-12-23T14:58:30.277Z,98290.31
2022-12-23T15:01:02.799Z,98260.13
2022-12-23T15:03:32.796Z,98301.97
2022-12-23T15:06:00.539Z,98276.53
2022-12-23T15:08:30.390Z,98271.78
2022-12-23T15:10:57.962Z,98281.50
2022-12-23T15:13:26.187Z,98270.84
2022-12-23T15:16:00.682Z,98272.28
2022-12-23T15:18:30.223Z,98265.81
2022-12-23T15:21:02.117Z,98269.38
2022-12-23T15:23:29.767Z,98275.00
2022-12-23T15:25:58.925Z,98261.16
2022-12-23T15:28:35.817Z,98311.34
2022-12-23T15:31:03.455Z,98265.78
2022-12-23T15:34:02.404Z,98261.25
2022-12-23T15:36:27.835Z,98271.41
2022-12-23T15:38:55.503Z,98275.31
2022-12-23T15:41:23.281Z,98276.13
2022-12-23T15:43:50.880Z,98287.91
2022-12-23T15:46:25.172Z,98289.56
2022-12-23T15:48:58.536Z,98275.44
2022-12-23T15:52:05.135Z,98283.69
2022-12-23T15:54:21.856Z,98271.25
2022-12-23T15:56:50.442Z,98284.78
2022-12-23T15:59:21.666Z,98280.72
2022-12-23T16:01:49.418Z,98272.03
2022-12-23T16:04:21.159Z,98281.94
2022-12-23T16:06:49.864Z,98284.38
2022-12-23T16:09:35.469Z,98279.81
2022-12-23T16:12:04.011Z,98288.41
2022-12-23T16:14:34.736Z,98280.59
2022-12-23T16:17:02.882Z,98290.81
2022-12-23T16:19:42.130Z,98256.56
2022-12-23T16:22:15.483Z,98303.78
2022-12-23T16:24:47.234Z,98301.84
2022-12-23T16:27:15.611Z,98310.50
2022-12-23T16:29:43.214Z,98300.63
2022-12-23T16:32:15.073Z,98300.09
2022-12-23T16:34:44.087Z,98302.25
2022-12-23T16:37:11.923Z,98306.25
2022-12-23T16:39:40.455Z,98292.09
2022-12-23T16:42:08.123Z,98314.00
2022-12-23T16:44:37.809Z,98323.75
2022-12-23T16:47:07.033Z,98321.75
2022-12-23T16:49:35.675Z,98311.34
2022-12-23T16:52:08.320Z,98314.56
2022-12-23T16:54:35.954Z,98319.75
2022-12-23T16:57:03.514Z,98333.63
2022-12-23T16:59:32.226Z,98337.91
2022-12-23T17:02:03.676Z,98343.16
2022-12-23T17:04:31.790Z,98342.25
2022-12-23T17:06:59.375Z,98328.31
2022-12-23T17:09:28.499Z,98345.59
2022-12-23T17:11:56.251Z,98350.63
2022-12-23T17:14:24.614Z,98364.72
2022-12-23T17:16:52.449Z,98353.97
2022-12-23T17:19:27.892Z,98377.75
2022-12-23T17:21:58.719Z,98378.56
2022-12-23T17:24:28.172Z,98383.63
2022-12-23T17:26:56.611Z,98361.72
2022-12-23T17:29:24.545Z,98377.31
2022-12-23T17:34:20.843Z,98364.31
2022-12-23T17:36:50.562Z,98334.91
2022-12-23T17:39:18.647Z,98404.34
2022-12-23T17:41:47.736Z,98410.38
2022-12-23T17:44:15.907Z,98404.63
2022-12-23T17:46:43.696Z,98420.22
2022-12-23T17:49:11.727Z,98437.59
2022-12-23T17:51:39.560Z,98430.59
2022-12-23T17:54:07.320Z,98440.34
2022-12-23T17:56:35.000Z,98421.78
2022-12-23T17:59:04.144Z,98455.53
2022-12-23T18:01:32.589Z,98454.72
2022-12-23T18:04:01.227Z,98464.63
2022-12-23T18:06:29.432Z,98425.19
2022-12-23T18:08:57.863Z,98459.75
2022-12-23T18:11:28.594Z,98455.47
2022-12-23T18:13:57.925Z,98410.53
2022-12-23T18:16:27.266Z,98442.66
2022-12-23T18:18:55.032Z,98469.56
2022-12-23T18:21:23.900Z,98461.88
2022-12-23T18:23:51.634Z,98470.84
2022-12-23T18:26:20.298Z,98466.50
2022-12-23T18:28:47.965Z,98477.16
2022-12-23T18:31:20.081Z,98459.53
2022-12-23T18:33:49.164Z,98475.06
2022-12-23T18:36:22.301Z,98481.16
2022-12-23T18:38:49.919Z,98491.19
2022-12-23T18:41:17.713Z,98489.28
2022-12-23T18:43:46.520Z,98476.22
2022-12-23T18:46:14.202Z,98505.91
2022-12-23T18:48:42.092Z,98490.59
2022-12-23T18:51:13.222Z,98500.56
2022-12-23T18:53:41.606Z,98491.91
2022-12-23T18:56:12.294Z,98469.94
2022-12-23T18:58:39.857Z,98514.06
2022-12-23T19:01:11.207Z,98511.16
2022-12-23T19:03:38.879Z,98517.41
2022-12-23T19:06:07.309Z,98522.56
2022-12-23T19:08:37.089Z,98527.16
2022-12-23T19:11:10.763Z,98521.88
2022-12-23T19:13:38.337Z,98520.44
2022-12-23T19:16:06.380Z,98518.63
2022-12-23T19:18:34.059Z,98526.22
2022-12-23T19:21:04.267Z,98524.66
2022-12-23T19:23:31.882Z,98531.44
2022-12-23T19:26:00.930Z,98531.50
2022-12-23T19:28:28.511Z,98533.69
2022-12-23T19:30:56.476Z,98526.56
2022-12-23T19:33:24.324Z,98546.56
2022-12-23T19:35:55.162Z,98547.63
2022-12-23T19:38:22.742Z,98545.97
2022-12-23T19:40:57.315Z,98524.53
2022-12-23T19:43:26.349Z,98563.72
2022-12-23T19:45:58.238Z,98548.22
2022-12-23T19:48:25.884Z,98561.09
2022-12-23T19:50:58.161Z,98578.66
2022-12-23T19:53:25.979Z,98560.38
2022-12-23T19:55:59.190Z,98576.09
2022-12-23T19:58:28.490Z,98586.84
2022-12-23T20:01:05.829Z,98586.53
2022-12-23T20:03:33.457Z,98590.03
2022-12-23T20:06:01.085Z,98584.97
2022-12-23T20:08:28.821Z,98597.25
2022-12-23T20:11:04.384Z,98570.00
2022-12-23T20:13:33.335Z,98600.00
2022-12-23T20:16:01.137Z,98605.31
2022-12-23T20:18:28.754Z,98601.69
2022-12-23T20:20:57.573Z,98607.84
2022-12-23T20:23:25.241Z,98608.81
2022-12-23T20:25:52.959Z,98619.19
2022-12-23T20:28:20.578Z,98625.56
2022-12-23T20:30:49.695Z,98626.31
2022-12-23T20:33:18.466Z,98628.88
2022-12-23T20:35:46.040Z,98643.69
2022-12-23T20:38:14.713Z,98632.34
2022-12-23T20:40:42.287Z,98648.03
2022-12-23T20:43:15.090Z,98657.66
2022-12-23T20:45:43.068Z,98648.91
2022-12-23T20:48:12.044Z,98653.41
2022-12-23T20:50:40.590Z,98662.25
2022-12-23T20:53:08.913Z,98657.88
2022-12-23T20:55:36.545Z,98664.97
2022-12-23T21:00:57.616Z,98676.34
2022-12-23T21:03:25.277Z,98672.03
2022-12-23T21:05:57.216Z,98684.53
2022-12-23T21:08:24.821Z,98685.31
2022-12-23T21:10:53.467Z,98684.50
2022-12-23T21:13:21.028Z,98688.09
2022-12-23T21:15:48.676Z,98694.94
2022-12-23T21:18:17.597Z,98660.00
2022-12-23T21:20:45.460Z,98695.81
2022-12-23T21:23:13.015Z,98696.78
2022-12-23T21:25:40.669Z,98696.78
2022-12-23T21:28:08.276Z,98738.00
2022-12-23T21:30:36.079Z,98696.63
2022-12-23T21:33:03.680Z,98606.06
2022-12-23T21:35:32.754Z,98669.66
2022-12-23T21:38:00.509Z,98715.06
2022-12-23T21:40:28.164Z,98709.06
2022-12-23T21:42:55.761Z,98710.06
2022-12-23T21:45:23.376Z,98711.81
2022-12-23T21:47:50.946Z,98710.22
2022-12-23T21:50:18.701Z,98736.56
2022-12-23T21:52:47.647Z,98728.69
2022-12-23T21:55:17.515Z,98742.75
2022-12-23T21:57:45.195Z,98744.59
2022-12-23T22:00:13.347Z,98764.94
2022-12-23T22:02:41.047Z,98746.88
2022-12-23T22:05:09.457Z,98758.88
2022-12-23T22:07:37.026Z,98758.94
2022-12-23T22:10:07.294Z,98779.34
2022-12-23T22:12:34.881Z,98766.19
2022-12-23T22:15:09.530Z,98777.66
2022-12-23T22:17:39.008Z,98790.78
2022-12-23T22:20:08.045Z,98776.75
2022-12-23T22:22:35.669Z,98793.41
2022-12-23T22:25:03.386Z,98800.38
2022-12-23T22:27:32.310Z,98776.91
2022-12-23T22:30:00.091Z,98795.13
2022-12-23T22:32:27.684Z,98791.72
2022-12-23T22:34:55.343Z,98802.16
2022-12-23T22:37:22.984Z,98807.59
2022-12-23T22:39:50.688Z,98804.41
2022-12-23T22:42:18.245Z,98791.84
2022-12-23T22:44:47.244Z,98804.94
2022-12-23T22:47:15.069Z,98809.34
2022-12-23T22:49:42.846Z,98819.06
2022-12-23T22:52:10.617Z,98846.25
2022-12-23T22:54:38.408Z,98839.38
2022-12-23T22:57:06.118Z,98834.84
2022-12-23T22:59:33.775Z,98823.84
2022-12-23T23:02:02.975Z,98843.63
2022-12-23T23:04:30.664Z,98853.22
2022-12-23T23:06:58.319Z,98872.59
2022-12-23T23:09:25.899Z,98866.41
2022-12-23T23:11:53.555Z,98868.25
2022-12-23T23:14:21.323Z,98867.44
2022-12-23T23:16:49.301Z,98874.31
2022-12-23T23:19:20.254Z,98866.38
2022-12-23T23:21:48.754Z,98877.84
2022-12-23T23:24:16.368Z,98877.81
2022-12-23T23:26:44.020Z,98882.31
2022-12-23T23:29:11.566Z,98883.38
2022-12-23T23:31:42.425Z,98890.19
2022-12-23T23:34:12.198Z,98705.63
2022-12-23T23:36:42.644Z,98646.41
2022-12-23T23:39:12.574Z,98822.25
2022-12-23T23:41:41.200Z,98768.97
2022-12-23T23:44:09.568Z,98537.53
2022-12-23T23:46:37.705Z,98735.69
2022-12-23T23:49:05.562Z,98847.47
2022-12-23T23:51:33.414Z,98725.59
2022-12-23T23:54:02.613Z,98627.00
2022-12-23T23:56:37.589Z,98814.31
2022-12-23T23:59:06.342Z,98771.22
